Time;durP1;ratioP1;P1;durP2;ratioP2;P2;SDS_P1;SDS_P2;PMS_P1;PMS_P2;Temp;Humidity;BMP_temperature;BMP_pressure;BME280_temperature;BME280_humidity;BME280_pressure;Samples;Min_cycle;Max_cycle;Signal;HPM_P1;HPM_P2
2023/08/26 00:04:43;;;;;;;6.63;6.03;;;21.10;99.90;;;;;;6027779;23;20454;-83
2023/08/26 00:07:52;;;;;;;;;;;;;;;;;;;;;
2023/08/26 00:11:12;;;;;;;8.63;6.60;;;20.80;99.90;;;;;;6042608;23;20411;-83
2023/08/26 00:18:59;;;;;;;;;;;;;;;;;;;;;
2023/08/26 00:29:37;;;;;;;8.13;7.43;;;20.90;99.90;;;;;;5945615;24;20446;-84
2023/08/26 00:36:24;;;;;;;9.50;6.90;;;21.00;99.90;;;;;;5903976;24;20398;-84
2023/08/26 00:39:26;;;;;;;9.37;6.90;;;20.30;99.90;;;;;;6105080;23;20462;-83
2023/08/26 00:42:52;;;;;;;7.73;6.97;;;21.10;99.90;;;;;;6161172;23;20407;-82
2023/08/26 00:46:17;;;;;;;7.30;6.60;;;20.30;99.90;;;;;;6117668;23;20453;-83
2023/08/26 00:50:02;;;;;;;7.80;6.80;;;20.70;99.90;;;;;;6157736;23;20452;-84
2023/08/26 00:52:57;;;;;;;8.07;6.47;;;21.40;99.90;;;;;;6158170;23;20425;-83
2023/08/26 00:56:30;;;;;;;;;;;;;;;;;;;;;
2023/08/26 01:00:10;;;;;;;;;;;;;;;;;;;;;
2023/08/26 01:04:16;;;;;;;6.10;5.60;;;20.40;99.90;;;;;;5894317;24;20498;-85
2023/08/26 01:11:28;;;;;;;6.17;4.70;;;20.80;99.90;;;;;;5868073;24;20423;-82
2023/08/26 01:14:28;;;;;;;5.20;4.40;;;20.40;99.90;;;;;;5848577;24;20417;-83
2023/08/26 01:23:36;;;;;;;;;;;;;;;;;;;;;
2023/08/26 01:34:19;;;;;;;5.70;5.20;;;19.30;99.30;;;;;;6086212;23;20489;-85
2023/08/26 01:55:42;;;;;;;7.40;4.93;;;20.10;99.90;;;;;;6134614;23;20387;-84
2023/08/26 02:06:24;;;;;;;;;;;;;;;;;;;;;
2023/08/26 02:09:55;;;;;;;3.53;3.20;;;18.80;98.80;;;;;;6150164;22;20469;-85
2023/08/26 02:16:20;;;;;;;6.00;3.60;;;19.30;98.20;;;;;;6170159;23;20478;-85
2023/08/26 02:23:59;;;;;;;4.70;3.23;;;18.70;96.60;;;;;;6070655;23;20441;-83
2023/08/26 02:27:28;;;;;;;3.97;3.33;;;19.30;97.00;;;;;;6021447;23;20465;-84
2023/08/26 02:30:38;;;;;;;4.23;2.97;;;19.80;97.60;;;;;;6057962;23;20398;-84
2023/08/26 02:33:34;;;;;;;;;;;;;;;;;;;;;
2023/08/26 02:40:18;;;;;;;2.47;2.27;;;18.80;96.60;;;;;;6004074;23;20398;-87
2023/08/26 02:43:39;;;;;;;2.90;2.13;;;18.80;96.50;;;;;;6048055;23;20405;-84
2023/08/26 02:46:50;;;;;;;3.23;2.20;;;19.20;96.40;;;;;;6055017;23;20405;-84
2023/08/26 02:50:20;;;;;;;2.53;2.10;;;18.60;96.40;;;;;;6187567;23;20628;-85
2023/08/26 03:06:23;;;;;;;2.20;1.90;;;18.40;95.50;;;;;;6129486;23;20461;-83
2023/08/26 03:10:00;;;;;;;1.90;1.70;;;19.00;96.40;;;;;;6111763;23;20561;-85
2023/08/26 03:32:06;;;;;;;1.90;1.63;;;18.00;95.90;;;;;;6089735;23;20396;-84
2023/08/26 03:43:42;;;;;;;2.40;1.90;;;18.60;96.80;;;;;;6062500;23;20466;-83
2023/08/26 03:51:39;;;;;;;4.07;1.70;;;18.30;96.70;;;;;;6187055;23;20487;-83
2023/08/26 04:10:48;;;;;;;;;;;;;;;;;;;;;
2023/08/26 04:13:42;;;;;;;1.90;1.70;;;17.90;96.50;;;;;;6208413;23;20405;-85
2023/08/26 04:23:07;;;;;;;1.50;1.40;;;18.20;95.60;;;;;;6214892;23;20531;-85
2023/08/26 04:50:43;;;;;;;2.60;1.27;;;17.40;96.70;;;;;;6231337;22;20504;-84
2023/08/26 05:20:37;;;;;;;1.40;1.30;;;17.30;96.70;;;;;;6161645;23;20777;-85
2023/08/26 05:24:15;;;;;;;2.30;1.60;;;17.10;96.30;;;;;;6129800;23;20486;-84
2023/08/26 05:27:28;;;;;;;;;;;;;;;;;;;;;
2023/08/26 05:29:57;;;;;;;2.53;1.50;;;17.50;96.80;;;;;;6182006;23;20473;-85
2023/08/26 05:37:08;;;;;;;4.10;1.20;;;17.90;95.80;;;;;;5987605;24;20413;-85
2023/08/26 05:40:26;;;;;;;1.77;1.43;;;17.70;95.70;;;;;;6147614;23;20454;-84
2023/08/26 05:44:21;;;;;;;6.37;1.53;;;17.80;95.40;;;;;;6141373;23;20575;-85
2023/08/26 05:57:19;;;;;;;1.33;1.17;;;18.10;95.80;;;;;;6056650;23;20412;-83
2023/08/26 06:11:17;;;;;;;2.47;1.40;;;18.50;95.50;;;;;;6186082;23;20460;-85
2023/08/26 06:15:11;;;;;;;2.57;1.40;;;20.90;92.00;;;;;;6014968;23;20396;-86
2023/08/26 06:26:16;;;;;;;;;;;;;;;;;;;;;
2023/08/26 06:40:12;;;;;;;2.43;1.40;;;30.30;50.20;;;;;;6163202;23;20709;-84
2023/08/26 06:43:49;;;;;;;1.17;1.07;;;30.00;50.90;;;;;;6160524;23;20407;-84
2023/08/26 06:53:35;;;;;;;1.80;0.87;;;31.00;48.60;;;;;;6184848;23;20466;-85
2023/08/26 07:10:13;;;;;;;1.90;1.30;;;30.90;47.20;;;;;;6133710;23;20470;-85
2023/08/26 07:13:49;;;;;;;1.70;1.27;;;30.40;48.00;;;;;;6050011;23;20405;-85
2023/08/26 07:31:38;;;;;;;;;;;;;;;;;;;;;
2023/08/26 08:08:59;;;;;;;0.83;0.83;;;31.30;44.10;;;;;;6212429;23;20425;-85
2023/08/26 08:16:03;;;;;;;0.63;0.60;;;30.20;45.10;;;;;;6109888;23;20411;-84
2023/08/26 08:19:24;;;;;;;1.80;1.10;;;30.60;44.40;;;;;;6074142;23;20414;-85
2023/08/26 08:22:55;;;;;;;1.07;0.97;;;31.10;43.60;;;;;;6145973;23;20407;-85
2023/08/26 08:33:06;;;;;;;0.90;0.80;;;33.20;39.20;;;;;;6151512;23;20442;-84
2023/08/26 08:36:23;;;;;;;;;;;;;;;;;;;;;
2023/08/26 08:50:25;;;;;;;1.17;0.83;;;31.70;40.40;;;;;;6218039;22;20456;-85
2023/08/26 08:57:35;;;;;;;0.93;0.87;;;33.00;39.10;;;;;;6131012;23;20383;-84
2023/08/26 09:15:33;;;;;;;1.10;0.90;;;32.40;38.10;;;;;;6072537;23;20431;-83
2023/08/26 09:18:44;;;;;;;0.87;0.87;;;32.00;40.10;;;;;;6073776;23;20822;-83
2023/08/26 09:21:46;;;;;;;1.60;1.00;;;32.70;40.00;;;;;;6117995;23;20407;-86
2023/08/26 09:24:31;;;;;;;1.30;0.80;;;32.20;39.50;;;;;;6195433;23;20532;-84
2023/08/26 09:27:18;;;;;;;3.10;1.23;;;32.10;38.80;;;;;;6197603;23;20421;-85
2023/08/26 09:30:07;;;;;;;2.10;0.90;;;32.00;40.20;;;;;;6196546;23;20405;-83
2023/08/26 09:33:19;;;;;;;1.53;0.80;;;31.70;40.30;;;;;;6199139;23;20384;-84
2023/08/26 09:36:22;;;;;;;0.90;0.80;;;32.10;40.50;;;;;;6188965;23;20797;-85
2023/08/26 09:39:29;;;;;;;;;;;;;;;;;;;;;
2023/08/26 09:42:11;;;;;;;1.37;0.60;;;31.70;38.20;;;;;;6217082;23;20420;-85
2023/08/26 09:44:52;;;;;;;4.97;0.93;;;31.70;41.00;;;;;;6192997;23;20472;-86
2023/08/26 10:09:44;;;;;;;1.13;1.00;;;32.00;37.80;;;;;;6184378;23;20477;-85
2023/08/26 10:12:58;;;;;;;2.23;1.00;;;32.70;37.80;;;;;;6171021;23;20396;-85
2023/08/26 10:15:37;;;;;;;0.70;0.70;;;32.10;38.00;;;;;;6196044;23;20478;-86
2023/08/26 10:19:00;;;;;;;0.90;0.73;;;31.70;40.50;;;;;;6177491;23;20429;-86
2023/08/26 10:21:40;;;;;;;2.00;0.60;;;32.20;39.40;;;;;;6168896;23;20410;-87
2023/08/26 10:24:31;;;;;;;0.80;0.60;;;32.40;37.70;;;;;;6171045;23;20469;-86
2023/08/26 10:27:12;;;;;;;1.63;1.30;;;32.40;37.50;;;;;;6172164;23;20492;-85
2023/08/26 10:30:25;;;;;;;1.10;0.70;;;31.30;38.60;;;;;;6176952;23;20429;-85
2023/08/26 10:33:36;;;;;;;1.83;0.70;;;31.10;37.50;;;;;;6123200;23;20394;-86
2023/08/26 10:36:28;;;;;;;0.60;0.50;;;31.80;39.20;;;;;;6166111;22;20466;-86
2023/08/26 10:46:01;;;;;;;0.90;0.50;;;31.60;37.20;;;;;;6203410;23;20436;-85
2023/08/26 10:49:12;;;;;;;1.37;0.50;;;31.60;35.80;;;;;;6241703;23;20448;-86
2023/08/26 10:52:30;;;;;;;0.87;0.50;;;31.20;38.20;;;;;;6220970;23;20400;-84
2023/08/26 10:55:32;;;;;;;0.53;0.50;;;30.60;40.50;;;;;;6241145;23;20385;-85
2023/08/26 10:58:24;;;;;;;1.03;0.60;;;31.00;39.80;;;;;;6217834;23;20421;-86
2023/08/26 11:01:03;;;;;;;0.50;0.50;;;31.30;39.00;;;;;;6212970;23;20463;-84
2023/08/26 11:03:57;;;;;;;0.83;0.70;;;31.50;39.30;;;;;;6203588;23;20500;-85
2023/08/26 11:06:43;;;;;;;0.70;0.70;;;31.30;39.50;;;;;;6206455;23;20463;-87
2023/08/26 11:09:21;;;;;;;1.23;0.77;;;31.60;38.70;;;;;;6207090;23;20660;-86
2023/08/26 11:11:59;;;;;;;0.60;0.60;;;31.30;38.30;;;;;;6223118;23;20408;-85
2023/08/26 11:14:39;;;;;;;1.17;0.70;;;31.30;38.90;;;;;;6198564;23;20417;-83
2023/08/26 11:20:35;;;;;;;1.30;0.90;;;30.00;41.30;;;;;;6224009;23;20413;-85
2023/08/26 11:23:06;;;;;;;0.60;0.50;;;29.90;41.80;;;;;;6221824;23;20398;-85
2023/08/26 11:25:39;;;;;;;0.80;0.80;;;29.50;43.20;;;;;;6220822;23;20437;-85
2023/08/26 11:28:08;;;;;;;0.80;0.60;;;29.40;44.50;;;;;;6218695;23;20456;-85
2023/08/26 11:33:48;;;;;;;0.80;0.80;;;30.10;42.30;;;;;;6215132;23;20411;-84
2023/08/26 11:36:22;;;;;;;2.20;0.70;;;29.80;41.90;;;;;;6221211;23;20439;-86
2023/08/26 11:38:57;;;;;;;1.20;0.80;;;30.10;40.50;;;;;;6222761;23;20431;-85
2023/08/26 11:41:36;;;;;;;0.60;0.60;;;30.70;41.00;;;;;;6213016;23;20426;-85
2023/08/26 11:44:23;;;;;;;1.10;1.00;;;30.60;41.30;;;;;;6169935;23;20445;-85
2023/08/26 11:47:14;;;;;;;1.20;1.10;;;30.30;40.80;;;;;;6169420;23;20413;-85
2023/08/26 11:50:03;;;;;;;0.83;0.80;;;30.30;40.40;;;;;;6166765;23;20434;-85
2023/08/26 11:52:39;;;;;;;1.37;0.60;;;30.00;40.30;;;;;;6172252;23;20433;-85
2023/08/26 11:55:12;;;;;;;1.10;0.60;;;30.00;41.50;;;;;;6167100;23;20406;-85
2023/08/26 11:57:57;;;;;;;1.00;0.70;;;28.70;43.70;;;;;;6167297;23;20418;-85
2023/08/26 12:00:39;;;;;;;1.60;1.37;;;28.10;44.80;;;;;;6169767;23;20410;-84
2023/08/26 12:03:31;;;;;;;1.00;0.77;;;28.10;44.20;;;;;;6173131;23;20428;-84
2023/08/26 12:06:00;;;;;;;1.10;1.00;;;28.00;46.30;;;;;;6183353;23;20441;-84
2023/08/26 12:08:30;;;;;;;1.30;0.80;;;28.40;45.80;;;;;;6175968;23;20457;-84
2023/08/26 12:10:57;;;;;;;1.00;0.90;;;29.40;44.70;;;;;;6170607;23;20410;-84
2023/08/26 12:13:37;;;;;;;0.83;0.80;;;29.50;44.20;;;;;;6178637;23;20470;-84
2023/08/26 12:16:05;;;;;;;0.87;0.73;;;29.30;44.50;;;;;;6212806;23;20439;-85
2023/08/26 12:18:32;;;;;;;1.00;0.90;;;28.40;44.50;;;;;;6186125;23;20967;-85
2023/08/26 12:21:05;;;;;;;0.97;0.73;;;27.90;45.60;;;;;;6211943;23;20390;-86
2023/08/26 12:23:32;;;;;;;2.00;0.70;;;27.20;46.40;;;;;;6212093;23;20481;-86
2023/08/26 12:26:12;;;;;;;1.00;0.60;;;28.50;47.20;;;;;;6183962;23;20440;-86
2023/08/26 12:28:54;;;;;;;1.10;0.90;;;27.30;46.50;;;;;;6192196;23;20452;-83
2023/08/26 12:31:37;;;;;;;0.60;0.60;;;27.20;46.30;;;;;;6163802;23;20510;-85
2023/08/26 12:34:14;;;;;;;0.90;0.63;;;28.00;47.60;;;;;;6163415;23;21173;-85
2023/08/26 12:36:52;;;;;;;1.10;0.80;;;28.20;46.60;;;;;;6163001;23;20959;-84
2023/08/26 12:42:59;;;;;;;0.70;0.70;;;27.80;45.20;;;;;;6219862;23;20916;-84
2023/08/26 12:45:35;;;;;;;0.73;0.70;;;27.90;45.40;;;;;;6196897;23;20440;-84
2023/08/26 12:48:12;;;;;;;1.00;0.90;;;27.80;47.80;;;;;;6194392;23;20428;-84
2023/08/26 12:50:47;;;;;;;0.80;0.80;;;27.50;48.90;;;;;;6192768;23;20508;-84
2023/08/26 12:53:23;;;;;;;1.10;1.00;;;26.90;49.00;;;;;;6193954;23;20537;-84
2023/08/26 12:56:14;;;;;;;1.00;0.80;;;27.40;48.80;;;;;;6192790;23;20499;-84
2023/08/26 12:58:52;;;;;;;1.33;0.90;;;26.50;48.80;;;;;;6196459;23;20429;-84
2023/08/26 13:01:29;;;;;;;1.33;0.87;;;27.00;50.70;;;;;;6196529;23;20424;-85
2023/08/26 13:05:05;;;;;;;1.00;0.90;;;27.30;49.60;;;;;;6195704;23;20417;-85
2023/08/26 13:07:37;;;;;;;1.27;0.93;;;27.50;45.90;;;;;;6216926;23;20467;-85
2023/08/26 13:10:05;;;;;;;0.80;0.80;;;28.10;46.90;;;;;;6192665;23;20887;-83
2023/08/26 13:12:33;;;;;;;1.57;0.90;;;27.10;46.50;;;;;;6218104;23;20402;-84
2023/08/26 13:15:08;;;;;;;2.20;0.70;;;27.20;46.10;;;;;;6224958;23;20436;-81
2023/08/26 13:18:03;;;;;;;1.83;0.80;;;27.40;45.80;;;;;;6213268;23;20440;-85
2023/08/26 13:20:36;;;;;;;0.60;0.60;;;28.20;45.40;;;;;;6236315;23;20409;-85
2023/08/26 13:23:28;;;;;;;1.30;0.63;;;28.90;45.90;;;;;;6200771;23;20412;-84
2023/08/26 13:26:12;;;;;;;0.87;0.70;;;27.90;44.30;;;;;;6196721;23;20472;-83
2023/08/26 13:28:55;;;;;;;1.17;0.80;;;28.60;46.40;;;;;;6150877;23;20483;-84
2023/08/26 13:31:28;;;;;;;0.80;0.80;;;29.00;43.40;;;;;;6136244;23;20424;-85
2023/08/26 13:33:55;;;;;;;0.87;0.73;;;28.40;44.80;;;;;;6135172;23;20404;-85
2023/08/26 13:36:28;;;;;;;0.70;0.70;;;29.20;46.40;;;;;;6131442;23;20419;-84
2023/08/26 13:39:18;;;;;;;0.73;0.50;;;29.60;45.00;;;;;;6130615;23;20462;-84
2023/08/26 13:41:56;;;;;;;1.10;1.00;;;30.40;41.50;;;;;;6129205;23;20459;-86
2023/08/26 13:44:23;;;;;;;1.00;0.83;;;30.40;42.70;;;;;;6132800;23;20739;-85
2023/08/26 13:47:34;;;;;;;0.87;0.70;;;28.90;43.60;;;;;;6129029;23;20412;-85
2023/08/26 13:50:18;;;;;;;1.50;0.90;;;29.30;42.10;;;;;;6129528;23;20500;-86
2023/08/26 13:53:12;;;;;;;0.70;0.70;;;28.80;43.30;;;;;;6128018;23;20412;-86
2023/08/26 13:56:27;;;;;;;0.70;0.70;;;29.50;44.20;;;;;;6127829;23;20491;-85
2023/08/26 13:59:34;;;;;;;0.93;0.80;;;29.00;43.60;;;;;;6098828;23;20484;-84
2023/08/26 14:02:30;;;;;;;1.43;0.80;;;28.50;43.70;;;;;;6130130;23;20412;-82
2023/08/26 14:05:30;;;;;;;;;;;;;;;;;;;;;
2023/08/26 14:08:32;;;;;;;0.83;0.83;;;28.40;44.00;;;;;;6127204;23;20450;-84
2023/08/26 14:11:25;;;;;;;1.60;0.87;;;28.80;44.70;;;;;;6131270;23;20404;-85
2023/08/26 14:14:10;;;;;;;1.30;0.90;;;28.60;44.20;;;;;;6131168;23;20423;-85
2023/08/26 14:20:36;;;;;;;1.57;1.00;;;27.90;44.20;;;;;;6189423;23;20450;-84
2023/08/26 14:23:34;;;;;;;3.30;1.10;;;28.10;46.40;;;;;;6168184;23;20406;-84
2023/08/26 14:26:46;;;;;;;1.23;0.97;;;26.80;47.30;;;;;;6191146;23;20453;-84
2023/08/26 14:29:59;;;;;;;2.57;0.80;;;27.50;46.10;;;;;;6151815;23;20418;-83
2023/08/26 14:32:57;;;;;;;0.80;0.80;;;27.00;45.20;;;;;;6169026;23;20417;-84
2023/08/26 14:36:25;;;;;;;0.97;0.77;;;27.10;46.30;;;;;;6166629;23;20911;-84
2023/08/26 14:42:04;;;;;;;1.53;1.20;;;26.50;47.20;;;;;;6183555;23;20497;-83
2023/08/26 14:51:43;;;;;;;1.50;1.23;;;26.20;47.90;;;;;;6208933;23;20429;-85
2023/08/26 14:54:39;;;;;;;1.80;1.03;;;26.50;49.40;;;;;;6172407;23;20903;-85
2023/08/26 15:00:31;;;;;;;1.93;0.77;;;26.80;47.50;;;;;;6103280;23;20976;-84
2023/08/26 15:03:20;;;;;;;1.10;1.00;;;27.00;48.40;;;;;;6055833;23;20460;-85
2023/08/26 15:06:55;;;;;;;1.43;0.80;;;27.30;48.80;;;;;;6100657;23;20448;-85
2023/08/26 15:10:03;;;;;;;2.60;1.10;;;26.80;47.90;;;;;;6079050;23;20463;-84
2023/08/26 15:13:34;;;;;;;2.23;1.30;;;27.00;47.30;;;;;;6073423;23;20388;-84
2023/08/26 15:20:13;;;;;;;1.40;1.30;;;26.40;48.60;;;;;;6098248;23;20496;-85
2023/08/26 15:26:47;;;;;;;1.40;1.30;;;26.20;49.20;;;;;;5957811;24;20608;-86
2023/08/26 15:34:03;;;;;;;;;;;;;;;;;;;;;
2023/08/26 15:37:39;;;;;;;;;;;;;;;;;;;;;
2023/08/26 16:27:06;;;;;;;1.80;1.07;;;25.90;50.90;;;;;;6194116;23;20386;-84
2023/08/26 16:36:20;;;;;;;2.40;1.10;;;26.50;52.00;;;;;;6079929;23;20397;-84
2023/08/26 22:46:57;;;;;;;;;;;;;;;;;;;;;
